Impacts TAF Board
For situational awareness. Not to be used for flight planning purposes.
IDs:

KGWO - Greenwood/Leflore Ar, MS, US

Issued at 2338 UTC 02 Jul 2022
Updated at 0522 UTC 03 Jul 2022
Potential Impact None Slight Moderate High
Time0453Z 03/06Z 03/07Z 03/08Z 03/09Z 03/10Z 03/11Z 03/12Z 03/13Z 03/14Z 03/15Z 03/16Z 03/17Z 03/18Z>>
Type OBS PRVL PRVL PRVL PRVL PRVL PRVL PRVL PRVL PRVL PRVL PRVL PRVL PRVL
VIS 10 >6 >6 >6 >6 >6 >6 >6 >6 >6 >6 >6 >6 >6
CIG -- 120 120 120 120 120 120 120 120 50 50 50 60 60
Cover CLR BKN BKN BKN BKN BKN BKN BKN BKN BKN BKN BKN BKN BKN
FltCat VFR VFR VFR VFR VFR VFR VFR VFR VFR VFR VFR VFR VFR VFR
WX -- -RA -RA -RA -RA -RA -RA -RA -RA -- -- -- SHRA VCTS SHRA VCTS
WDir VRB 180 180 180 180 180 180 180 180 210 210 210 210 210
WSpd 0 6 6 6 6 6 6 6 6 6 6 6 10 10
WGst -- -- -- -- -- -- -- -- -- -- -- -- -- --
WSHgt -- -- -- -- -- -- -- -- -- -- -- -- -- --
WSDir -- -- -- -- -- -- -- -- -- -- -- -- -- --
WSSpd -- -- -- -- -- -- -- -- -- -- -- -- -- --
Raw TAF
KGWO 022338Z 0300/0324 20010KT 2SM RA BR BKN040
  FM030130 18006KT P6SM -RA SCT040 BKN120
  FM031400 21006KT P6SM SCT015 BKN050
  FM031700 21010KT P6SM SHRA VCTS SCT035CB BKN060
  FM032100 21010KT P6SM VCSH BKN035


Raw METAR
KGWO 030453Z AUTO 00000KT 10SM CLR 25/23 A3001 RMK AO2 SLP158 T02500228
KGWO 030353Z AUTO 18004KT 10SM CLR 25/23 A3000 RMK AO2 SLP156 T02500228
KGWO 030253Z AUTO 14007KT 10SM CLR 25/22 A3000 RMK AO2 SLP156 60012 T02500222 58002

METAR Board
Radar Display
Forecast Discussion
For situational awareness. Not to be used for flight planning purposes.